sensor_id;sensor_type;location;lat;lon;timestamp;pressure;altitude;pressure_sealevel;temperature;humidity
68712;BME280;55690;51.566;19.198;2022-08-19T00:03:03;101167.62;;;21.54;100.00
68712;BME280;55690;51.566;19.198;2022-08-19T00:07:08;101158.63;;;21.52;100.00
68712;BME280;55690;51.566;19.198;2022-08-19T00:11:14;101158.81;;;21.50;100.00
68712;BME280;55690;51.566;19.198;2022-08-19T00:15:21;101153.46;;;21.49;100.00
68712;BME280;55690;51.566;19.198;2022-08-19T00:19:27;101163.13;;;21.45;100.00
68712;BME280;55690;51.566;19.198;2022-08-19T00:23:33;101166.41;;;21.40;100.00
68712;BME280;55690;51.566;19.198;2022-08-19T00:27:39;101177.64;;;21.39;100.00
68712;BME280;55690;51.566;19.198;2022-08-19T00:31:46;101163.13;;;21.37;100.00
68712;BME280;55690;51.566;19.198;2022-08-19T00:35:51;101169.87;;;21.42;100.00
68712;BME280;55690;51.566;19.198;2022-08-19T00:39:57;101162.44;;;21.51;100.00
68712;BME280;55690;51.566;19.198;2022-08-19T00:48:14;101177.64;;;21.55;100.00
68712;BME280;55690;51.566;19.198;2022-08-19T00:52:27;101176.77;;;21.63;100.00
68712;BME280;55690;51.566;19.198;2022-08-19T00:56:32;101174.88;;;21.55;100.00
68712;BME280;55690;51.566;19.198;2022-08-19T01:00:36;101172.29;;;21.53;100.00
68712;BME280;55690;51.566;19.198;2022-08-19T01:04:38;101162.61;;;21.57;100.00
68712;BME280;55690;51.566;19.198;2022-08-19T01:08:40;101157.09;;;21.57;100.00
68712;BME280;55690;51.566;19.198;2022-08-19T01:12:48;101142.93;;;21.52;100.00
68712;BME280;55690;51.566;19.198;2022-08-19T01:16:55;101135.49;;;21.53;100.00
68712;BME280;55690;51.566;19.198;2022-08-19T01:21:03;101122.20;;;21.56;100.00
68712;BME280;55690;51.566;19.198;2022-08-19T01:25:07;101114.59;;;21.58;100.00
68712;BME280;55690;51.566;19.198;2022-08-19T01:29:11;101115.80;;;21.56;100.00
68712;BME280;55690;51.566;19.198;2022-08-19T01:33:18;101117.02;;;21.53;100.00
68712;BME280;55690;51.566;19.198;2022-08-19T01:37:23;101115.98;;;21.54;100.00
68712;BME280;55690;51.566;19.198;2022-08-19T01:41:30;101098.89;;;21.51;100.00
68712;BME280;55690;51.566;19.198;2022-08-19T01:45:37;101093.34;;;21.59;100.00
68712;BME280;55690;51.566;19.198;2022-08-19T01:49:42;101102.33;;;21.53;100.00
68712;BME280;55690;51.566;19.198;2022-08-19T01:53:49;101098.53;;;21.54;100.00
68712;BME280;55690;51.566;19.198;2022-08-19T01:57:58;101085.92;;;21.51;100.00
68712;BME280;55690;51.566;19.198;2022-08-19T02:02:01;101084.87;;;21.61;100.00
68712;BME280;55690;51.566;19.198;2022-08-19T02:06:07;101086.42;;;21.63;100.00
68712;BME280;55690;51.566;19.198;2022-08-19T02:10:17;101074.45;;;21.71;100.00
68712;BME280;55690;51.566;19.198;2022-08-19T02:14:20;101071.01;;;21.69;100.00
68712;BME280;55690;51.566;19.198;2022-08-19T02:18:25;101072.38;;;21.73;100.00
68712;BME280;55690;51.566;19.198;2022-08-19T02:22:32;101073.75;;;21.77;100.00
68712;BME280;55690;51.566;19.198;2022-08-19T02:26:37;101068.73;;;21.80;100.00
68712;BME280;55690;51.566;19.198;2022-08-19T02:30:44;101070.10;;;21.84;100.00
68712;BME280;55690;51.566;19.198;2022-08-19T02:34:50;101058.89;;;21.78;100.00
68712;BME280;55690;51.566;19.198;2022-08-19T02:38:56;101053.00;;;21.81;100.00
68712;BME280;55690;51.566;19.198;2022-08-19T02:43:04;101047.98;;;21.84;100.00
68712;BME280;55690;51.566;19.198;2022-08-19T02:47:09;101047.83;;;21.78;100.00
68712;BME280;55690;51.566;19.198;2022-08-19T02:51:20;101050.06;;;21.82;100.00
68712;BME280;55690;51.566;19.198;2022-08-19T02:55:22;101042.30;;;21.78;100.00
68712;BME280;55690;51.566;19.198;2022-08-19T02:59:30;101046.29;;;21.75;100.00
68712;BME280;55690;51.566;19.198;2022-08-19T03:03:33;101053.00;;;21.81;100.00
68712;BME280;55690;51.566;19.198;2022-08-19T03:07:39;101053.00;;;21.81;100.00
68712;BME280;55690;51.566;19.198;2022-08-19T03:11:46;101056.98;;;21.78;100.00
68712;BME280;55690;51.566;19.198;2022-08-19T03:15:51;101054.21;;;21.78;100.00
68712;BME280;55690;51.566;19.198;2022-08-19T03:19:58;101052.65;;;21.84;100.00
68712;BME280;55690;51.566;19.198;2022-08-19T03:24:07;101058.20;;;21.76;100.00
68712;BME280;55690;51.566;19.198;2022-08-19T03:28:12;101069.08;;;21.77;100.00
68712;BME280;55690;51.566;19.198;2022-08-19T03:32:16;101067.87;;;21.80;100.00
68712;BME280;55690;51.566;19.198;2022-08-19T03:36:24;101068.23;;;21.69;100.00
68712;BME280;55690;51.566;19.198;2022-08-19T03:40:28;101065.48;;;21.69;100.00
68712;BME280;55690;51.566;19.198;2022-08-19T03:44:35;101067.95;;;21.64;100.00
68712;BME280;55690;51.566;19.198;2022-08-19T03:48:43;101071.01;;;21.69;100.00
68712;BME280;55690;51.566;19.198;2022-08-19T03:52:51;101067.26;;;21.62;100.00
68712;BME280;55690;51.566;19.198;2022-08-19T03:56:55;101075.20;;;21.65;100.00
68712;BME280;55690;51.566;19.198;2022-08-19T04:00:59;101076.05;;;21.65;100.00
68712;BME280;55690;51.566;19.198;2022-08-19T04:05:06;101069.62;;;21.73;100.00
68712;BME280;55690;51.566;19.198;2022-08-19T04:09:11;101070.30;;;21.75;100.00
68712;BME280;55690;51.566;19.198;2022-08-19T04:13:18;101073.09;;;21.67;100.00
68712;BME280;55690;51.566;19.198;2022-08-19T04:17:24;101082.45;;;21.66;100.00
68712;BME280;55690;51.566;19.198;2022-08-19T04:21:30;101073.59;;;21.70;100.00
68712;BME280;55690;51.566;19.198;2022-08-19T04:25:41;101079.12;;;21.70;100.00
68712;BME280;55690;51.566;19.198;2022-08-19T04:29:43;101067.53;;;21.75;100.00
68712;BME280;55690;51.566;19.198;2022-08-19T04:33:48;101077.55;;;21.76;100.00
68712;BME280;55690;51.566;19.198;2022-08-19T04:37:55;101081.01;;;21.78;100.00
68712;BME280;55690;51.566;19.198;2022-08-19T04:42:01;101074.26;;;21.80;100.00
68712;BME280;55690;51.566;19.198;2022-08-19T04:46:14;101078.59;;;21.75;100.00
68712;BME280;55690;51.566;19.198;2022-08-19T04:50:17;101080.31;;;21.76;100.00
68712;BME280;55690;51.566;19.198;2022-08-19T04:54:21;101093.43;;;21.82;100.00
68712;BME280;55690;51.566;19.198;2022-08-19T04:58:27;101084.42;;;21.88;100.00
68712;BME280;55690;51.566;19.198;2022-08-19T05:02:32;101086.63;;;22.01;100.00
68712;BME280;55690;51.566;19.198;2022-08-19T05:06:39;101093.47;;;22.21;100.00
68712;BME280;55690;51.566;19.198;2022-08-19T05:10:44;101101.22;;;22.26;100.00
68712;BME280;55690;51.566;19.198;2022-08-19T05:14:50;101100.86;;;22.29;100.00
68712;BME280;55690;51.566;19.198;2022-08-19T05:18:56;101100.10;;;22.43;100.00
68712;BME280;55690;51.566;19.198;2022-08-19T05:23:11;101093.95;;;22.55;100.00
68712;BME280;55690;51.566;19.198;2022-08-19T05:27:17;101100.80;;;22.68;100.00
68712;BME280;55690;51.566;19.198;2022-08-19T05:31:20;101113.71;;;22.83;100.00
68712;BME280;55690;51.566;19.198;2022-08-19T05:35:22;101110.98;;;22.98;100.00
68712;BME280;55690;51.566;19.198;2022-08-19T05:39:29;101114.41;;;23.23;100.00
68712;BME280;55690;51.566;19.198;2022-08-19T05:43:34;101116.27;;;23.45;100.00
68712;BME280;55690;51.566;19.198;2022-08-19T05:47:42;101107.65;;;23.40;98.96
68712;BME280;55690;51.566;19.198;2022-08-19T05:51:46;101090.34;;;23.76;99.39
68712;BME280;55690;51.566;19.198;2022-08-19T05:55:52;101095.97;;;24.12;97.65
68712;BME280;55690;51.566;19.198;2022-08-19T05:59:58;101101.48;;;24.41;96.79
68712;BME280;55690;51.566;19.198;2022-08-19T06:04:05;101098.23;;;24.38;94.68
68712;BME280;55690;51.566;19.198;2022-08-19T06:08:11;101095.30;;;24.61;94.75
68712;BME280;55690;51.566;19.198;2022-08-19T06:12:20;101097.93;;;25.05;94.54
68712;BME280;55690;51.566;19.198;2022-08-19T06:16:31;101110.17;;;25.10;92.83
68712;BME280;55690;51.566;19.198;2022-08-19T06:20:36;101092.88;;;25.15;92.24
68712;BME280;55690;51.566;19.198;2022-08-19T06:24:38;101104.64;;;25.38;92.10
68712;BME280;55690;51.566;19.198;2022-08-19T06:28:42;101100.52;;;25.62;91.39
68712;BME280;55690;51.566;19.198;2022-08-19T06:32:48;101110.56;;;25.84;91.17
68712;BME280;55690;51.566;19.198;2022-08-19T06:36:55;101102.77;;;25.73;91.14
68712;BME280;55690;51.566;19.198;2022-08-19T06:41:04;101104.55;;;25.81;90.35
68712;BME280;55690;51.566;19.198;2022-08-19T06:45:07;101109.84;;;26.10;89.52
68712;BME280;55690;51.566;19.198;2022-08-19T06:49:12;101110.28;;;26.14;89.98
68712;BME280;55690;51.566;19.198;2022-08-19T06:53:18;101111.31;;;26.06;90.94
68712;BME280;55690;51.566;19.198;2022-08-19T06:57:26;101110.00;;;26.02;90.53
68712;BME280;55690;51.566;19.198;2022-08-19T07:01:40;101123.38;;;26.20;90.31
68712;BME280;55690;51.566;19.198;2022-08-19T07:05:42;101124.65;;;26.59;90.31
68712;BME280;55690;51.566;19.198;2022-08-19T07:09:44;101124.44;;;26.60;88.71
68712;BME280;55690;51.566;19.198;2022-08-19T07:13:49;101125.38;;;26.94;88.03
68712;BME280;55690;51.566;19.198;2022-08-19T07:17:55;101121.80;;;27.06;87.74
68712;BME280;55690;51.566;19.198;2022-08-19T07:22:05;101129.96;;;27.47;87.08
68712;BME280;55690;51.566;19.198;2022-08-19T07:26:14;101133.81;;;27.33;85.67
68712;BME280;55690;51.566;19.198;2022-08-19T07:30:16;101138.16;;;27.69;86.48
68712;BME280;55690;51.566;19.198;2022-08-19T07:34:20;101148.84;;;27.92;85.34
68712;BME280;55690;51.566;19.198;2022-08-19T07:38:26;101148.42;;;27.81;84.20
68712;BME280;55690;51.566;19.198;2022-08-19T07:42:32;101160.45;;;27.56;84.40
68712;BME280;55690;51.566;19.198;2022-08-19T07:46:42;101158.92;;;27.46;85.13
68712;BME280;55690;51.566;19.198;2022-08-19T07:50:45;101152.93;;;27.76;85.62
68712;BME280;55690;51.566;19.198;2022-08-19T07:54:51;101156.78;;;27.95;85.06
68712;BME280;55690;51.566;19.198;2022-08-19T07:58:57;101166.85;;;28.09;83.64
68712;BME280;55690;51.566;19.198;2022-08-19T08:03:03;101153.70;;;28.16;84.99
68712;BME280;55690;51.566;19.198;2022-08-19T08:07:09;101165.10;;;28.28;84.54
68712;BME280;55690;51.566;19.198;2022-08-19T08:11:23;101173.10;;;28.69;83.98
68712;BME280;55690;51.566;19.198;2022-08-19T08:15:24;101166.52;;;28.57;83.01
68712;BME280;55690;51.566;19.198;2022-08-19T08:19:28;101176.13;;;28.67;84.02
68712;BME280;55690;51.566;19.198;2022-08-19T08:23:34;101177.80;;;28.75;82.78
68712;BME280;55690;51.566;19.198;2022-08-19T08:27:42;101177.95;;;29.00;83.25
68712;BME280;55690;51.566;19.198;2022-08-19T08:31:46;101180.92;;;29.36;82.54
68712;BME280;55690;51.566;19.198;2022-08-19T08:35:52;101174.01;;;29.39;81.74
68712;BME280;55690;51.566;19.198;2022-08-19T08:40:05;101179.70;;;29.57;81.62
68712;BME280;55690;51.566;19.198;2022-08-19T08:52:37;101193.71;;;29.82;80.21
68712;BME280;55690;51.566;19.198;2022-08-19T08:56:44;101186.79;;;30.09;79.68
68712;BME280;55690;51.566;19.198;2022-08-19T09:00:48;101194.95;;;30.11;77.92
68712;BME280;55690;51.566;19.198;2022-08-19T09:04:50;101185.78;;;30.40;80.63
68712;BME280;55690;51.566;19.198;2022-08-19T09:09:02;101187.34;;;30.18;78.67
68712;BME280;55690;51.566;19.198;2022-08-19T09:17:13;101173.59;;;30.71;77.68
68712;BME280;55690;51.566;19.198;2022-08-19T09:21:15;101175.63;;;30.64;77.41
68712;BME280;55690;51.566;19.198;2022-08-19T09:25:20;101176.40;;;30.71;77.03
68712;BME280;55690;51.566;19.198;2022-08-19T09:29:23;101169.35;;;30.81;75.82
68712;BME280;55690;51.566;19.198;2022-08-19T09:33:25;101169.88;;;30.89;75.83
68712;BME280;55690;51.566;19.198;2022-08-19T09:37:27;101149.93;;;30.67;74.86
68712;BME280;55690;51.566;19.198;2022-08-19T09:41:31;101153.45;;;31.23;75.68
68712;BME280;55690;51.566;19.198;2022-08-19T09:45:37;101150.30;;;31.31;73.21
68712;BME280;55690;51.566;19.198;2022-08-19T09:49:43;101151.43;;;31.41;73.87
68712;BME280;55690;51.566;19.198;2022-08-19T09:53:50;101130.02;;;31.17;75.29
68712;BME280;55690;51.566;19.198;2022-08-19T09:57:55;101151.62;;;31.17;71.15
68712;BME280;55690;51.566;19.198;2022-08-19T10:02:02;101144.84;;;31.48;71.08
68712;BME280;55690;51.566;19.198;2022-08-19T10:06:08;101142.79;;;31.55;69.78
68712;BME280;55690;51.566;19.198;2022-08-19T10:10:14;101160.88;;;31.70;68.65
68712;BME280;55690;51.566;19.198;2022-08-19T10:14:20;101148.82;;;31.93;68.75
68712;BME280;55690;51.566;19.198;2022-08-19T10:18:26;101150.98;;;32.15;67.61
68712;BME280;55690;51.566;19.198;2022-08-19T10:22:32;101147.20;;;32.44;66.16
68712;BME280;55690;51.566;19.198;2022-08-19T10:26:40;101152.48;;;32.69;64.91
68712;BME280;55690;51.566;19.198;2022-08-19T10:30:49;101139.28;;;32.29;63.30
68712;BME280;55690;51.566;19.198;2022-08-19T10:34:51;101143.97;;;32.52;64.70
68712;BME280;55690;51.566;19.198;2022-08-19T10:39:00;101147.26;;;32.61;63.25
68712;BME280;55690;51.566;19.198;2022-08-19T10:43:03;101141.34;;;32.86;63.61
68712;BME280;55690;51.566;19.198;2022-08-19T10:47:10;101144.94;;;32.98;63.83
68712;BME280;55690;51.566;19.198;2022-08-19T10:51:15;101130.84;;;33.26;63.26
68712;BME280;55690;51.566;19.198;2022-08-19T10:55:29;101125.38;;;33.20;61.70
68712;BME280;55690;51.566;19.198;2022-08-19T10:59:42;101127.66;;;33.34;61.82
68712;BME280;55690;51.566;19.198;2022-08-19T11:03:44;101124.27;;;33.21;60.54
68712;BME280;55690;51.566;19.198;2022-08-19T11:07:46;101117.54;;;33.22;60.65
68712;BME280;55690;51.566;19.198;2022-08-19T11:11:51;101110.16;;;33.32;61.22
68712;BME280;55690;51.566;19.198;2022-08-19T11:16:02;101115.54;;;33.34;58.02
68712;BME280;55690;51.566;19.198;2022-08-19T11:20:04;101130.89;;;33.60;55.85
68712;BME280;55690;51.566;19.198;2022-08-19T11:24:11;101124.23;;;33.83;55.51
68712;BME280;55690;51.566;19.198;2022-08-19T11:28:13;101130.79;;;33.55;55.72
68712;BME280;55690;51.566;19.198;2022-08-19T11:32:17;101125.75;;;33.40;56.07
68712;BME280;55690;51.566;19.198;2022-08-19T11:36:23;101136.34;;;33.33;57.18
68712;BME280;55690;51.566;19.198;2022-08-19T11:40:29;101127.97;;;33.38;58.06
68712;BME280;55690;51.566;19.198;2022-08-19T11:44:35;101131.15;;;33.75;58.07
68712;BME280;55690;51.566;19.198;2022-08-19T11:48:42;101116.89;;;33.48;58.31
68712;BME280;55690;51.566;19.198;2022-08-19T11:52:48;101117.48;;;33.67;56.63
68712;BME280;55690;51.566;19.198;2022-08-19T11:56:54;101113.98;;;33.77;57.40
68712;BME280;55690;51.566;19.198;2022-08-19T12:01:00;101122.26;;;33.83;58.22
68712;BME280;55690;51.566;19.198;2022-08-19T12:05:07;101108.83;;;34.29;58.63
68712;BME280;55690;51.566;19.198;2022-08-19T12:09:12;101114.46;;;34.07;58.69
68712;BME280;55690;51.566;19.198;2022-08-19T12:13:18;101114.98;;;34.26;58.39
68712;BME280;55690;51.566;19.198;2022-08-19T12:17:26;101115.10;;;33.76;57.12
68712;BME280;55690;51.566;19.198;2022-08-19T12:21:33;101108.43;;;33.48;57.80
68712;BME280;55690;51.566;19.198;2022-08-19T12:25:42;101112.88;;;33.78;59.70
68712;BME280;55690;51.566;19.198;2022-08-19T12:29:52;101118.09;;;33.69;57.38
68712;BME280;55690;51.566;19.198;2022-08-19T12:33:54;101121.58;;;33.76;58.80
68712;BME280;55690;51.566;19.198;2022-08-19T12:37:55;101118.50;;;33.78;57.41
68712;BME280;55690;51.566;19.198;2022-08-19T12:42:02;101116.61;;;34.00;58.28
68712;BME280;55690;51.566;19.198;2022-08-19T12:46:08;101115.34;;;33.41;56.59
68712;BME280;55690;51.566;19.198;2022-08-19T12:50:14;101119.09;;;33.96;58.44
68712;BME280;55690;51.566;19.198;2022-08-19T12:54:20;101116.50;;;34.12;58.50
68712;BME280;55690;51.566;19.198;2022-08-19T12:58:27;101114.66;;;33.50;57.44
68712;BME280;55690;51.566;19.198;2022-08-19T13:02:32;101120.35;;;33.22;57.50
68712;BME280;55690;51.566;19.198;2022-08-19T13:06:38;101114.97;;;33.20;58.74
68712;BME280;55690;51.566;19.198;2022-08-19T13:10:44;101114.59;;;33.28;60.42
68712;BME280;55690;51.566;19.198;2022-08-19T13:14:51;101108.14;;;33.16;59.76
68712;BME280;55690;51.566;19.198;2022-08-19T13:18:57;101114.88;;;33.15;61.05
68712;BME280;55690;51.566;19.198;2022-08-19T13:23:03;101115.27;;;32.90;60.27
68712;BME280;55690;51.566;19.198;2022-08-19T13:27:09;101109.97;;;32.94;60.44
68712;BME280;55690;51.566;19.198;2022-08-19T13:31:19;101108.59;;;32.80;61.54
68712;BME280;55690;51.566;19.198;2022-08-19T13:35:33;101106.04;;;32.66;60.97
68712;BME280;55690;51.566;19.198;2022-08-19T13:39:35;101111.50;;;32.85;61.46
68712;BME280;55690;51.566;19.198;2022-08-19T13:43:37;101100.42;;;32.95;62.67
68712;BME280;55690;51.566;19.198;2022-08-19T13:47:40;101099.82;;;32.93;64.75
68712;BME280;55690;51.566;19.198;2022-08-19T13:51:46;101088.30;;;32.94;63.29
68712;BME280;55690;51.566;19.198;2022-08-19T13:55:52;101095.33;;;32.92;63.86
68712;BME280;55690;51.566;19.198;2022-08-19T13:59:59;101103.46;;;32.77;62.06
68712;BME280;55690;51.566;19.198;2022-08-19T14:04:05;101081.23;;;32.63;62.51
68712;BME280;55690;51.566;19.198;2022-08-19T14:08:10;101091.83;;;32.73;63.49
68712;BME280;55690;51.566;19.198;2022-08-19T14:12:20;101086.84;;;32.75;65.33
68712;BME280;55690;51.566;19.198;2022-08-19T14:16:23;101095.89;;;32.65;66.49
68712;BME280;55690;51.566;19.198;2022-08-19T14:20:29;101089.55;;;32.58;68.18
68712;BME280;55690;51.566;19.198;2022-08-19T14:24:37;101089.44;;;32.53;69.37
68712;BME280;55690;51.566;19.198;2022-08-19T14:28:42;101087.84;;;32.57;68.79
68712;BME280;55690;51.566;19.198;2022-08-19T14:32:47;101089.16;;;32.66;67.54
68712;BME280;55690;51.566;19.198;2022-08-19T14:36:53;101087.45;;;32.65;67.79
68712;BME280;55690;51.566;19.198;2022-08-19T14:45:14;101079.66;;;32.56;67.84
68712;BME280;55690;51.566;19.198;2022-08-19T14:49:16;101075.60;;;32.35;70.17
68712;BME280;55690;51.566;19.198;2022-08-19T14:53:19;101070.73;;;32.30;69.22
68712;BME280;55690;51.566;19.198;2022-08-19T15:01:30;101067.84;;;32.02;71.05
68712;BME280;55690;51.566;19.198;2022-08-19T15:05:36;101072.00;;;31.99;69.81
68712;BME280;55690;51.566;19.198;2022-08-19T15:09:43;101076.90;;;31.81;73.09
68712;BME280;55690;51.566;19.198;2022-08-19T15:13:51;101061.74;;;31.58;73.99
68712;BME280;55690;51.566;19.198;2022-08-19T15:17:55;101063.71;;;31.69;72.13
68712;BME280;55690;51.566;19.198;2022-08-19T15:26:07;101046.37;;;31.61;70.99
68712;BME280;55690;51.566;19.198;2022-08-19T15:38:26;101043.31;;;31.51;71.49
68712;BME280;55690;51.566;19.198;2022-08-19T15:42:37;101039.64;;;31.38;72.16
68712;BME280;55690;51.566;19.198;2022-08-19T15:50:46;101029.35;;;31.09;74.05
68712;BME280;55690;51.566;19.198;2022-08-19T15:54:51;101034.83;;;31.04;74.49
68712;BME280;55690;51.566;19.198;2022-08-19T15:58:56;101023.81;;;30.91;76.81
68712;BME280;55690;51.566;19.198;2022-08-19T16:07:32;101021.63;;;30.93;73.39
68712;BME280;55690;51.566;19.198;2022-08-19T16:11:34;101012.59;;;30.91;75.39
68712;BME280;55690;51.566;19.198;2022-08-19T16:23:54;101000.99;;;30.45;79.89
68712;BME280;55690;51.566;19.198;2022-08-19T16:27:57;100999.37;;;30.38;79.58
68712;BME280;55690;51.566;19.198;2022-08-19T16:32:00;101009.08;;;30.24;80.14
68712;BME280;55690;51.566;19.198;2022-08-19T16:36:01;101008.77;;;30.14;80.51
68712;BME280;55690;51.566;19.198;2022-08-19T16:40:04;101017.26;;;30.07;81.63
68712;BME280;55690;51.566;19.198;2022-08-19T16:44:16;101030.40;;;30.06;78.52
68712;BME280;55690;51.566;19.198;2022-08-19T16:48:21;101037.80;;;30.01;81.98
68712;BME280;55690;51.566;19.198;2022-08-19T16:52:27;101054.65;;;29.76;84.21
68712;BME280;55690;51.566;19.198;2022-08-19T16:56:30;101065.36;;;29.61;84.83
68712;BME280;55690;51.566;19.198;2022-08-19T17:00:32;101075.98;;;29.52;85.80
68712;BME280;55690;51.566;19.198;2022-08-19T17:04:41;101076.21;;;29.51;85.21
68712;BME280;55690;51.566;19.198;2022-08-19T17:12:47;101075.07;;;29.33;86.00
68712;BME280;55690;51.566;19.198;2022-08-19T17:16:53;101076.60;;;29.29;85.13
68712;BME280;55690;51.566;19.198;2022-08-19T17:21:01;101085.05;;;29.23;86.56
68712;BME280;55690;51.566;19.198;2022-08-19T17:25:06;101089.48;;;29.05;88.39
68712;BME280;55690;51.566;19.198;2022-08-19T17:29:17;101089.55;;;28.99;87.20
68712;BME280;55690;51.566;19.198;2022-08-19T17:33:20;101077.19;;;28.82;89.17
68712;BME280;55690;51.566;19.198;2022-08-19T17:37:28;101076.37;;;28.68;88.65
68712;BME280;55690;51.566;19.198;2022-08-19T17:41:31;101071.45;;;28.63;87.97
68712;BME280;55690;51.566;19.198;2022-08-19T17:45:38;101079.93;;;28.50;90.71
68712;BME280;55690;51.566;19.198;2022-08-19T17:49:46;101068.41;;;28.33;92.09
68712;BME280;55690;51.566;19.198;2022-08-19T17:53:56;101072.74;;;28.23;91.42
68712;BME280;55690;51.566;19.198;2022-08-19T17:58:00;101077.48;;;28.15;92.46
68712;BME280;55690;51.566;19.198;2022-08-19T18:02:07;101086.95;;;28.14;91.39
68712;BME280;55690;51.566;19.198;2022-08-19T18:06:09;101087.84;;;28.02;92.60
68712;BME280;55690;51.566;19.198;2022-08-19T18:14:21;101102.27;;;27.79;92.89
68712;BME280;55690;51.566;19.198;2022-08-19T18:18:28;101085.09;;;27.82;93.47
68712;BME280;55690;51.566;19.198;2022-08-19T18:22:35;101074.15;;;27.74;95.25
68712;BME280;55690;51.566;19.198;2022-08-19T18:30:44;101075.69;;;27.30;98.68
68712;BME280;55690;51.566;19.198;2022-08-19T18:34:51;101080.40;;;27.36;98.67
68712;BME280;55690;51.566;19.198;2022-08-19T18:38:58;101079.12;;;27.45;95.04
68712;BME280;55690;51.566;19.198;2022-08-19T18:43:11;101088.55;;;27.31;100.00
68712;BME280;55690;51.566;19.198;2022-08-19T18:47:24;101078.28;;;27.25;99.72
68712;BME280;55690;51.566;19.198;2022-08-19T18:55:42;101126.29;;;27.01;100.00
68712;BME280;55690;51.566;19.198;2022-08-19T19:03:59;101145.82;;;27.07;93.87
68712;BME280;55690;51.566;19.198;2022-08-19T19:08:02;101149.26;;;27.09;93.48
68712;BME280;55690;51.566;19.198;2022-08-19T19:20:19;101151.23;;;26.61;97.86
68712;BME280;55690;51.566;19.198;2022-08-19T19:28:30;101167.27;;;26.18;100.00
68712;BME280;55690;51.566;19.198;2022-08-19T19:32:37;101169.20;;;26.17;100.00
68712;BME280;55690;51.566;19.198;2022-08-19T19:40:45;101153.88;;;26.00;100.00
68712;BME280;55690;51.566;19.198;2022-08-19T19:48:55;101173.90;;;25.82;100.00
68712;BME280;55690;51.566;19.198;2022-08-19T19:52:57;101178.75;;;25.74;100.00
68712;BME280;55690;51.566;19.198;2022-08-19T19:57:04;101190.59;;;25.61;100.00
68712;BME280;55690;51.566;19.198;2022-08-19T20:01:08;101201.88;;;25.53;100.00
68712;BME280;55690;51.566;19.198;2022-08-19T20:05:12;101201.62;;;25.48;100.00
68712;BME280;55690;51.566;19.198;2022-08-19T20:09:18;101205.18;;;25.42;100.00
68712;BME280;55690;51.566;19.198;2022-08-19T20:13:21;101196.91;;;25.48;100.00
68712;BME280;55690;51.566;19.198;2022-08-19T20:17:27;101214.91;;;25.31;100.00
68712;BME280;55690;51.566;19.198;2022-08-19T20:21:38;101239.20;;;25.23;100.00
68712;BME280;55690;51.566;19.198;2022-08-19T20:25:45;101257.85;;;25.07;100.00
68712;BME280;55690;51.566;19.198;2022-08-19T20:29:46;101272.34;;;25.03;100.00
68712;BME280;55690;51.566;19.198;2022-08-19T20:33:52;101297.14;;;25.04;100.00
68712;BME280;55690;51.566;19.198;2022-08-19T20:37:58;101301.82;;;24.89;100.00
68712;BME280;55690;51.566;19.198;2022-08-19T20:42:04;101301.53;;;24.84;100.00
68712;BME280;55690;51.566;19.198;2022-08-19T20:46:10;101313.41;;;24.78;100.00
68712;BME280;55690;51.566;19.198;2022-08-19T20:50:18;101335.34;;;24.73;100.00
68712;BME280;55690;51.566;19.198;2022-08-19T20:58:30;101326.74;;;24.53;100.00
68712;BME280;55690;51.566;19.198;2022-08-19T21:02:35;101313.53;;;24.55;100.00
68712;BME280;55690;51.566;19.198;2022-08-19T21:10:51;101309.98;;;24.46;100.00
68712;BME280;55690;51.566;19.198;2022-08-19T21:19:01;101242.20;;;24.41;100.00
68712;BME280;55690;51.566;19.198;2022-08-19T21:23:10;101203.91;;;24.36;100.00
68712;BME280;55690;51.566;19.198;2022-08-19T21:27:13;101220.18;;;24.39;100.00
68712;BME280;55690;51.566;19.198;2022-08-19T21:31:19;101216.83;;;24.44;100.00
68712;BME280;55690;51.566;19.198;2022-08-19T21:35:26;101250.91;;;24.38;100.00
68712;BME280;55690;51.566;19.198;2022-08-19T21:39:31;101260.85;;;24.32;100.00
68712;BME280;55690;51.566;19.198;2022-08-19T21:43:38;101275.67;;;24.25;100.00
68712;BME280;55690;51.566;19.198;2022-08-19T21:47:44;101279.95;;;24.12;100.00
68712;BME280;55690;51.566;19.198;2022-08-19T21:51:50;101277.10;;;24.20;100.00
68712;BME280;55690;51.566;19.198;2022-08-19T21:55:56;101273.80;;;24.25;100.00
68712;BME280;55690;51.566;19.198;2022-08-19T22:00:07;101262.85;;;24.24;100.00
68712;BME280;55690;51.566;19.198;2022-08-19T22:04:10;101250.21;;;24.21;100.00
68712;BME280;55690;51.566;19.198;2022-08-19T22:08:14;101242.37;;;24.25;100.00
68712;BME280;55690;51.566;19.198;2022-08-19T22:12:26;101243.77;;;24.06;100.00
68712;BME280;55690;51.566;19.198;2022-08-19T22:16:28;101255.63;;;24.00;100.00
68712;BME280;55690;51.566;19.198;2022-08-19T22:20:33;101240.02;;;23.99;100.00
68712;BME280;55690;51.566;19.198;2022-08-19T22:24:39;101251.98;;;23.99;100.00
68712;BME280;55690;51.566;19.198;2022-08-19T22:28:45;101250.03;;;23.85;100.00
68712;BME280;55690;51.566;19.198;2022-08-19T22:32:54;101254.54;;;23.86;100.00
68712;BME280;55690;51.566;19.198;2022-08-19T22:37:00;101247.45;;;23.83;100.00
68712;BME280;55690;51.566;19.198;2022-08-19T22:41:04;101235.98;;;23.86;100.00
68712;BME280;55690;51.566;19.198;2022-08-19T22:45:12;101214.09;;;23.77;100.00
68712;BME280;55690;51.566;19.198;2022-08-19T22:49:16;101211.32;;;23.77;100.00